createdAt,value
2018-04-29T00:00:23.337Z,6.40
2018-04-29T00:02:51.817Z,6.33
2018-04-29T00:05:20.308Z,21.03
2018-04-29T00:07:48.870Z,5.67
2018-04-29T00:10:17.360Z,6.83
2018-04-29T00:12:45.838Z,6.30
2018-04-29T00:15:14.345Z,6.67
2018-04-29T00:17:43.649Z,8.20
2018-04-29T00:20:12.264Z,7.07
2018-04-29T00:22:41.765Z,6.83
2018-04-29T00:25:10.300Z,6.33
2018-04-29T00:27:38.544Z,6.47
2018-04-29T00:30:07.867Z,7.60
2018-04-29T00:32:36.365Z,7.33
2018-04-29T00:35:04.681Z,7.23
2018-04-29T00:37:34.732Z,6.80
2018-04-29T00:40:03.674Z,6.27
2018-04-29T00:42:32.161Z,5.47
2018-04-29T00:45:00.408Z,7.20
2018-04-29T00:47:29.105Z,6.77
2018-04-29T00:49:57.681Z,7.60
2018-04-29T00:52:26.196Z,7.70
2018-04-29T00:54:54.689Z,6.53
2018-04-29T00:57:23.170Z,6.93
2018-04-29T00:59:51.664Z,9.00
2018-04-29T01:02:20.149Z,7.70
2018-04-29T01:04:49.177Z,8.50
2018-04-29T01:07:17.680Z,8.77
2018-04-29T01:09:46.270Z,9.53
2018-04-29T01:12:14.757Z,8.93
2018-04-29T01:14:43.233Z,9.70
2018-04-29T01:17:11.817Z,8.77
2018-04-29T01:19:40.396Z,9.50
2018-04-29T01:22:08.881Z,8.77
2018-04-29T01:24:37.470Z,9.73
2018-04-29T01:27:05.944Z,8.97
2018-04-29T01:29:34.628Z,10.50
2018-04-29T01:32:03.217Z,6.43
2018-04-29T01:34:31.688Z,7.50
2018-04-29T01:37:00.284Z,6.90
2018-04-29T01:39:28.449Z,6.17
2018-04-29T01:41:57.102Z,5.10
2018-04-29T01:44:26.349Z,5.57
2018-04-29T01:46:54.846Z,6.20
2018-04-29T01:49:23.317Z,5.70
2018-04-29T01:51:51.850Z,6.90
2018-04-29T01:54:20.328Z,6.97
2018-04-29T01:56:48.808Z,6.77
2018-04-29T01:59:17.304Z,6.00
2018-04-29T02:01:46.638Z,6.97
2018-04-29T02:04:15.135Z,6.40
2018-04-29T02:06:43.361Z,6.90
2018-04-29T02:09:12.766Z,7.33
2018-04-29T02:11:42.009Z,7.40
2018-04-29T02:14:10.508Z,8.40
2018-04-29T02:16:39.005Z,6.83
2018-04-29T02:19:07.617Z,7.23
2018-04-29T02:21:36.200Z,7.20
2018-04-29T02:24:04.472Z,6.90
2018-04-29T02:26:33.053Z,7.70
2018-04-29T02:29:01.596Z,6.80
2018-04-29T02:31:30.240Z,7.23
2018-04-29T02:33:58.785Z,6.80
2018-04-29T02:36:27.276Z,8.07
2018-04-29T02:38:56.635Z,8.00
2018-04-29T02:41:25.229Z,7.60
2018-04-29T02:43:53.398Z,7.67
2018-04-29T02:46:21.892Z,7.20
2018-04-29T02:48:50.381Z,6.67
2018-04-29T02:51:18.869Z,7.43
2018-04-29T02:53:47.526Z,6.87
2018-04-29T02:56:16.101Z,6.50
2018-04-29T02:58:44.760Z,6.53
2018-04-29T03:01:14.085Z,6.97
2018-04-29T03:03:43.411Z,6.50
2018-04-29T03:06:12.000Z,6.07
2018-04-29T03:08:40.479Z,7.37
2018-04-29T03:11:08.976Z,7.10
2018-04-29T03:13:37.524Z,8.47
2018-04-29T03:16:06.450Z,7.20
2018-04-29T03:18:35.045Z,6.80
2018-04-29T03:21:03.659Z,7.50
2018-04-29T03:23:33.021Z,6.87
2018-04-29T03:26:01.496Z,7.27
2018-04-29T03:28:29.971Z,7.50
2018-04-29T03:30:58.922Z,7.67
2018-04-29T03:33:27.810Z,8.43
2018-04-29T03:35:56.557Z,8.57
2018-04-29T03:38:25.181Z,7.30
2018-04-29T03:40:54.804Z,8.30
2018-04-29T03:43:23.277Z,7.90
2018-04-29T03:45:51.861Z,8.10
2018-04-29T03:48:20.461Z,8.10
2018-04-29T03:50:49.874Z,7.40
2018-04-29T03:53:19.316Z,8.17
2018-04-29T03:55:47.802Z,7.47
2018-04-29T03:58:37.189Z,7.60
2018-04-29T04:01:16.921Z,7.53
2018-04-29T04:03:50.726Z,7.67
2018-04-29T04:06:19.205Z,7.73
2018-04-29T04:08:47.695Z,7.73
2018-04-29T04:11:16.381Z,7.40
2018-04-29T04:13:44.965Z,7.50
2018-04-29T04:16:13.361Z,7.87
2018-04-29T04:18:41.914Z,8.00
2018-04-29T04:21:10.413Z,7.90
2018-04-29T04:23:39.046Z,7.20
2018-04-29T04:26:08.444Z,8.20
2018-04-29T04:28:37.881Z,7.43
2018-04-29T04:31:07.466Z,8.67
2018-04-29T04:33:36.712Z,7.87
2018-04-29T04:36:05.198Z,7.40
2018-04-29T04:38:33.796Z,7.47
2018-04-29T04:41:02.281Z,7.87
2018-04-29T04:43:30.765Z,7.40
2018-04-29T04:45:59.236Z,7.00
2018-04-29T04:48:27.632Z,8.00
2018-04-29T04:50:56.129Z,8.13
2018-04-29T04:53:24.620Z,7.90
2018-04-29T04:55:53.868Z,7.40
2018-04-29T04:58:22.329Z,6.67
2018-04-29T05:00:51.693Z,6.50
2018-04-29T05:03:21.875Z,7.67
2018-04-29T05:05:50.525Z,7.60
2018-04-29T05:08:19.004Z,7.97
2018-04-29T05:10:47.556Z,7.17
2018-04-29T05:13:15.821Z,8.33
2018-04-29T05:15:44.301Z,8.50
2018-04-29T05:18:12.876Z,9.00
2018-04-29T05:20:41.463Z,8.23
2018-04-29T05:23:09.969Z,10.00
2018-04-29T05:25:38.444Z,10.03
2018-04-29T05:28:06.797Z,9.77
2018-04-29T05:30:35.302Z,9.17
2018-04-29T05:33:03.792Z,10.63
2018-04-29T05:35:32.265Z,8.97
2018-04-29T05:38:00.753Z,9.10
2018-04-29T05:40:29.228Z,9.50
2018-04-29T05:42:57.729Z,8.90
2018-04-29T05:45:26.220Z,10.43
2018-04-29T05:47:55.009Z,11.07
2018-04-29T05:50:23.506Z,11.07
2018-04-29T05:52:52.749Z,10.10
2018-04-29T05:55:21.105Z,9.63
2018-04-29T05:57:50.348Z,8.50
2018-04-29T06:00:18.941Z,9.37
2018-04-29T06:02:47.416Z,9.37
2018-04-29T06:05:18.389Z,10.10
2018-04-29T06:07:48.377Z,8.53
2018-04-29T06:10:16.865Z,9.97
2018-04-29T06:12:45.361Z,8.00
2018-04-29T06:15:13.849Z,9.10
2018-04-29T06:17:44.049Z,10.03
2018-04-29T06:20:12.541Z,8.50
2018-04-29T06:22:41.032Z,8.67
2018-04-29T06:25:09.513Z,8.50
2018-04-29T06:27:38.138Z,9.37
2018-04-29T06:30:06.764Z,8.10
2018-04-29T06:32:35.234Z,6.73
2018-04-29T06:35:04.136Z,7.00
2018-04-29T06:37:32.652Z,7.13
2018-04-29T06:40:01.942Z,7.00
2018-04-29T06:42:30.209Z,6.50
2018-04-29T06:44:58.807Z,5.60
2018-04-29T06:47:27.365Z,5.47
2018-04-29T06:49:55.866Z,5.00
2018-04-29T06:52:24.360Z,6.03
2018-04-29T06:54:52.854Z,5.70
2018-04-29T06:57:21.405Z,5.17
2018-04-29T06:59:49.890Z,5.50
2018-04-29T07:02:18.362Z,6.47
2018-04-29T07:04:46.858Z,7.43
2018-04-29T07:07:15.353Z,7.97
2018-04-29T07:09:43.834Z,6.47
2018-04-29T07:12:12.321Z,5.27
2018-04-29T07:14:40.916Z,3.93
2018-04-29T07:17:09.813Z,5.00
2018-04-29T07:19:38.301Z,4.40
2018-04-29T07:22:06.795Z,4.43
2018-04-29T07:24:36.097Z,5.20
2018-04-29T07:27:05.374Z,4.20
2018-04-29T07:29:33.864Z,4.63
2018-04-29T07:32:02.337Z,4.07
2018-04-29T07:34:30.835Z,4.13
2018-04-29T07:36:59.330Z,5.03
2018-04-29T07:39:28.725Z,3.97
2018-04-29T07:41:57.235Z,4.27
2018-04-29T07:44:25.734Z,3.70
2018-04-29T07:46:54.201Z,4.90
2018-04-29T07:49:22.705Z,3.63
2018-04-29T07:51:52.114Z,3.43
2018-04-29T07:54:20.447Z,3.90
2018-04-29T07:56:49.703Z,4.20
2018-04-29T07:59:18.202Z,3.60
2018-04-29T08:01:46.807Z,3.90
2018-04-29T08:04:15.461Z,3.53
2018-04-29T08:06:44.005Z,3.77
2018-04-29T08:09:12.718Z,4.03
2018-04-29T08:11:41.208Z,4.80
2018-04-29T08:14:09.696Z,4.00
2018-04-29T08:16:38.181Z,3.43
2018-04-29T08:19:06.701Z,3.77
2018-04-29T08:21:35.197Z,3.87
2018-04-29T08:24:04.078Z,3.73
2018-04-29T08:26:33.657Z,3.73
2018-04-29T08:29:03.169Z,3.77
2018-04-29T08:31:32.678Z,4.70
2018-04-29T08:34:02.325Z,4.03
2018-04-29T08:36:32.058Z,3.43
2018-04-29T08:39:01.536Z,4.30
2018-04-29T08:41:31.152Z,3.63
2018-04-29T08:44:00.721Z,3.47
2018-04-29T08:46:30.344Z,4.10
2018-04-29T08:48:59.855Z,3.70
2018-04-29T08:51:29.352Z,3.50
2018-04-29T08:53:58.876Z,4.10
2018-04-29T08:56:28.445Z,3.60
2018-04-29T08:58:58.048Z,3.77
2018-04-29T09:01:27.677Z,3.70
2018-04-29T09:03:57.287Z,3.33
2018-04-29T09:06:26.848Z,3.83
2018-04-29T09:08:56.369Z,3.20
2018-04-29T09:11:25.866Z,3.23
2018-04-29T09:13:55.548Z,3.47
2018-04-29T09:16:25.033Z,3.10
2018-04-29T09:18:54.633Z,3.30
2018-04-29T09:21:24.323Z,3.33
2018-04-29T09:23:53.843Z,3.20
2018-04-29T09:26:23.332Z,4.00
2018-04-29T09:28:52.822Z,3.70
2018-04-29T09:31:22.345Z,3.67
2018-04-29T09:33:51.980Z,3.90
2018-04-29T09:36:21.564Z,3.33
2018-04-29T09:38:51.072Z,3.30
2018-04-29T09:41:20.688Z,3.80
2018-04-29T09:43:49.964Z,4.07
2018-04-29T09:46:19.477Z,3.50
2018-04-29T09:48:48.770Z,3.90
2018-04-29T09:51:18.452Z,3.80
2018-04-29T09:53:47.956Z,3.60
2018-04-29T09:56:17.458Z,3.87
2018-04-29T09:58:47.053Z,4.13
2018-04-29T10:01:17.483Z,3.83
2018-04-29T10:03:47.780Z,4.07
2018-04-29T10:06:17.170Z,3.90
2018-04-29T10:08:46.649Z,3.77
2018-04-29T10:11:16.133Z,3.87
2018-04-29T10:13:45.733Z,4.17
2018-04-29T10:16:15.260Z,4.03
2018-04-29T10:18:44.867Z,4.00
2018-04-29T10:21:14.680Z,3.80
2018-04-29T10:23:44.184Z,3.80
2018-04-29T10:26:13.706Z,3.63
2018-04-29T10:28:43.217Z,3.80
2018-04-29T10:31:12.865Z,4.10
2018-04-29T10:33:42.125Z,4.40
2018-04-29T10:36:11.611Z,4.50
2018-04-29T10:38:41.129Z,4.00
2018-04-29T10:41:10.815Z,3.90
2018-04-29T10:43:40.681Z,3.80
2018-04-29T10:46:10.160Z,3.97
2018-04-29T10:48:39.777Z,3.57
2018-04-29T10:51:09.256Z,4.00
2018-04-29T10:53:38.795Z,3.93
2018-04-29T10:56:08.294Z,4.27
2018-04-29T10:58:37.796Z,3.80
2018-04-29T11:01:07.120Z,4.20
2018-04-29T11:03:36.297Z,4.10
2018-04-29T11:06:05.848Z,3.93
2018-04-29T11:08:35.612Z,3.33
2018-04-29T11:11:05.296Z,3.30
2018-04-29T11:13:34.796Z,3.70
2018-04-29T11:16:04.285Z,3.40
2018-04-29T11:18:33.786Z,3.30
2018-04-29T11:21:03.268Z,3.20
2018-04-29T11:23:33.178Z,3.87
2018-04-29T11:26:02.677Z,3.50
2018-04-29T11:28:32.266Z,3.50
2018-04-29T11:31:01.960Z,3.97
2018-04-29T11:33:31.549Z,4.10
2018-04-29T11:36:01.106Z,3.40
2018-04-29T11:38:30.624Z,3.60
2018-04-29T11:41:00.180Z,3.50
2018-04-29T11:43:29.681Z,3.80
2018-04-29T11:45:59.513Z,3.90
2018-04-29T11:48:29.152Z,3.87
2018-04-29T11:50:58.625Z,3.77
2018-04-29T11:53:28.258Z,3.87
2018-04-29T11:55:57.885Z,3.70
2018-04-29T11:58:27.400Z,3.30
2018-04-29T12:00:56.886Z,3.67
2018-04-29T12:03:26.488Z,3.23
2018-04-29T12:05:56.003Z,3.30
2018-04-29T12:08:25.670Z,3.13
2018-04-29T12:10:55.411Z,3.60
2018-04-29T12:13:24.666Z,3.87
2018-04-29T12:15:54.330Z,3.47
2018-04-29T12:18:23.876Z,3.07
2018-04-29T12:20:53.369Z,3.63
2018-04-29T12:23:23.066Z,3.20
2018-04-29T12:25:52.628Z,3.50
2018-04-29T12:28:22.112Z,3.33
2018-04-29T12:30:51.606Z,3.00
2018-04-29T12:33:21.092Z,3.40
2018-04-29T12:35:50.606Z,3.23
2018-04-29T12:38:20.272Z,3.33
2018-04-29T12:40:49.955Z,3.30
2018-04-29T12:43:19.460Z,2.97
2018-04-29T12:45:48.944Z,3.13
2018-04-29T12:48:18.627Z,3.30
2018-04-29T12:50:48.177Z,3.57
2018-04-29T12:53:17.996Z,3.40
2018-04-29T12:55:47.489Z,2.90
2018-04-29T12:58:16.968Z,3.30
2018-04-29T13:00:46.463Z,2.97
2018-04-29T13:03:15.984Z,3.20
2018-04-29T13:05:45.576Z,3.17
2018-04-29T13:08:15.160Z,2.77
2018-04-29T13:10:44.677Z,3.30
2018-04-29T13:13:14.176Z,3.60
2018-04-29T13:15:43.784Z,3.13
2018-04-29T13:18:13.285Z,3.27
2018-04-29T13:20:42.877Z,3.23
2018-04-29T13:23:12.360Z,3.63
2018-04-29T13:25:41.868Z,3.60
2018-04-29T13:28:11.372Z,2.77
2018-04-29T13:30:40.870Z,2.53
2018-04-29T13:33:10.501Z,2.73
2018-04-29T13:35:40.019Z,3.03
2018-04-29T13:38:09.664Z,2.87
2018-04-29T13:40:39.171Z,2.63
2018-04-29T13:43:08.681Z,3.20
2018-04-29T13:45:38.256Z,3.00
2018-04-29T13:48:07.754Z,3.43
2018-04-29T13:50:37.381Z,2.77
2018-04-29T13:53:06.884Z,2.30
2018-04-29T13:55:36.460Z,3.10
2018-04-29T13:58:05.986Z,2.17
2018-04-29T14:00:35.537Z,2.40
2018-04-29T14:03:05.100Z,2.20
2018-04-29T14:05:34.632Z,2.70
2018-04-29T14:08:04.135Z,2.63
2018-04-29T14:10:33.667Z,2.80
2018-04-29T14:13:03.301Z,3.17
2018-04-29T14:15:32.944Z,2.83
2018-04-29T14:18:02.439Z,3.03
2018-04-29T14:20:31.958Z,2.53
2018-04-29T14:23:01.132Z,3.23
2018-04-29T14:25:30.661Z,3.00
2018-04-29T14:28:00.176Z,3.70
2018-04-29T14:30:29.665Z,2.80
2018-04-29T14:32:59.144Z,3.03
2018-04-29T14:35:28.656Z,3.37
2018-04-29T14:37:58.157Z,3.07
2018-04-29T14:40:27.680Z,3.67
2018-04-29T14:42:57.190Z,3.63
2018-04-29T14:45:26.720Z,3.50
2018-04-29T14:47:56.224Z,3.60
2018-04-29T14:50:25.717Z,3.10
2018-04-29T14:52:55.201Z,3.00
2018-04-29T14:55:24.715Z,3.00
2018-04-29T14:57:54.258Z,3.40
2018-04-29T15:00:23.760Z,3.20
2018-04-29T15:02:53.240Z,3.10
2018-04-29T15:05:22.764Z,3.47
2018-04-29T15:07:52.491Z,3.30
2018-04-29T15:10:22.018Z,3.00
2018-04-29T15:12:51.670Z,3.33
2018-04-29T15:15:21.348Z,3.60
2018-04-29T15:17:50.823Z,2.63
2018-04-29T15:20:20.307Z,3.57
2018-04-29T15:22:49.844Z,4.10
2018-04-29T15:25:19.337Z,3.87
2018-04-29T15:27:48.846Z,3.83
2018-04-29T15:30:18.317Z,3.67
2018-04-29T15:32:47.876Z,3.83
2018-04-29T15:35:17.375Z,3.50
2018-04-29T15:37:46.877Z,3.30
2018-04-29T15:40:16.370Z,3.90
2018-04-29T15:42:45.867Z,3.80
2018-04-29T15:45:15.360Z,3.80
2018-04-29T15:47:44.899Z,3.63
2018-04-29T15:50:14.395Z,4.00
2018-04-29T15:52:44.001Z,4.63
2018-04-29T15:55:13.498Z,4.23
2018-04-29T15:57:42.968Z,4.00
2018-04-29T16:00:12.452Z,3.30
2018-04-29T16:02:41.957Z,3.70
2018-04-29T16:05:11.485Z,4.33
2018-04-29T16:07:41.072Z,4.40
2018-04-29T16:10:10.573Z,3.63
2018-04-29T16:12:40.077Z,3.90
2018-04-29T16:15:09.329Z,3.50
2018-04-29T16:17:38.873Z,4.07
2018-04-29T16:20:08.405Z,3.80
2018-04-29T16:22:38.211Z,3.63
2018-04-29T16:25:07.783Z,4.33
2018-04-29T16:27:37.316Z,3.97
2018-04-29T16:30:06.817Z,3.90
2018-04-29T16:32:36.444Z,4.40
2018-04-29T16:35:05.936Z,4.00
2018-04-29T16:37:35.216Z,4.40
2018-04-29T16:40:04.749Z,3.63
2018-04-29T16:42:34.225Z,4.10
2018-04-29T16:45:03.458Z,3.90
2018-04-29T16:47:32.961Z,3.73
2018-04-29T16:50:02.564Z,5.10
2018-04-29T16:52:32.150Z,3.60
2018-04-29T16:55:01.665Z,3.50
2018-04-29T16:57:30.927Z,3.20
2018-04-29T17:00:00.428Z,3.50
2018-04-29T17:02:29.901Z,3.60
2018-04-29T17:04:59.405Z,3.80
2018-04-29T17:07:28.988Z,3.70
2018-04-29T17:09:58.494Z,3.93
2018-04-29T17:12:27.984Z,4.07
2018-04-29T17:14:57.480Z,3.70
2018-04-29T17:17:26.995Z,3.87
2018-04-29T17:19:56.507Z,4.40
2018-04-29T17:22:26.001Z,3.53
2018-04-29T17:24:55.560Z,3.60
2018-04-29T17:27:25.117Z,3.83
2018-04-29T17:29:54.613Z,4.30
2018-04-29T17:32:24.184Z,3.30
2018-04-29T17:34:53.681Z,3.60
2018-04-29T17:37:23.193Z,3.70
2018-04-29T17:39:52.745Z,3.73
2018-04-29T17:42:22.521Z,3.47
2018-04-29T17:44:52.029Z,4.00
2018-04-29T17:47:21.541Z,3.60
2018-04-29T17:49:51.032Z,4.10
2018-04-29T17:52:20.604Z,4.10
2018-04-29T17:54:50.109Z,3.90
2018-04-29T17:57:19.609Z,4.20
2018-04-29T17:59:49.113Z,3.70
2018-04-29T18:02:18.756Z,3.50
2018-04-29T18:04:48.316Z,4.10
2018-04-29T18:07:17.885Z,4.03
2018-04-29T18:09:47.524Z,4.40
2018-04-29T18:12:17.024Z,5.10
2018-04-29T18:14:46.531Z,4.43
2018-04-29T18:17:16.020Z,3.90
2018-04-29T18:19:45.667Z,3.73
2018-04-29T18:22:15.141Z,4.00
2018-04-29T18:24:44.689Z,3.97
2018-04-29T18:27:14.192Z,3.50
2018-04-29T18:29:43.689Z,4.37
2018-04-29T18:32:13.228Z,3.63
2018-04-29T18:34:42.745Z,3.60
2018-04-29T18:37:12.245Z,4.37
2018-04-29T18:39:41.724Z,3.80
2018-04-29T18:42:11.265Z,3.83
2018-04-29T18:44:40.838Z,4.93
2018-04-29T18:47:10.485Z,3.80
2018-04-29T18:49:39.987Z,4.30
2018-04-29T18:52:09.488Z,3.80
2018-04-29T18:54:39.021Z,4.20
2018-04-29T18:57:08.522Z,4.80
2018-04-29T18:59:38.018Z,4.23
2018-04-29T19:02:07.532Z,6.20
2018-04-29T19:04:37.053Z,5.50
2018-04-29T19:07:06.691Z,4.50
2018-04-29T19:09:36.283Z,4.33
2018-04-29T19:12:05.830Z,3.77
2018-04-29T19:14:35.388Z,4.23
2018-04-29T19:17:04.908Z,4.47
2018-04-29T19:19:34.419Z,5.07
2018-04-29T19:22:03.928Z,4.30
2018-04-29T19:24:33.565Z,5.03
2018-04-29T19:27:03.069Z,4.70
2018-04-29T19:29:32.749Z,4.77
2018-04-29T19:32:02.352Z,5.10
2018-04-29T19:34:31.873Z,4.70
2018-04-29T19:37:01.451Z,4.60
2018-04-29T19:39:31.044Z,4.13
2018-04-29T19:42:00.557Z,4.60
2018-04-29T19:44:30.088Z,5.20
2018-04-29T19:46:59.601Z,4.60
2018-04-29T19:49:29.144Z,4.43
2018-04-29T19:51:58.696Z,4.87
2018-04-29T19:54:28.213Z,4.93
2018-04-29T19:56:57.735Z,4.53
2018-04-29T19:59:27.217Z,5.53
2018-04-29T20:01:56.837Z,4.53
2018-04-29T20:04:26.321Z,4.57
2018-04-29T20:06:55.847Z,4.30
2018-04-29T20:09:25.390Z,4.10
2018-04-29T20:11:54.905Z,4.60
2018-04-29T20:14:24.421Z,4.90
2018-04-29T20:16:53.924Z,4.70
2018-04-29T20:19:23.421Z,5.50
2018-04-29T20:21:53.012Z,4.63
2018-04-29T20:24:22.540Z,4.90
2018-04-29T20:26:52.282Z,4.73
2018-04-29T20:29:21.788Z,4.37
2018-04-29T20:31:50.751Z,5.60
2018-04-29T20:34:20.259Z,5.37
2018-04-29T20:36:49.747Z,4.73
2018-04-29T20:39:19.235Z,5.37
2018-04-29T20:41:48.741Z,5.20
2018-04-29T20:44:17.895Z,5.63
2018-04-29T20:46:47.438Z,5.33
2018-04-29T20:49:16.993Z,4.97
2018-04-29T20:51:46.608Z,5.20
2018-04-29T20:54:16.084Z,5.90
2018-04-29T20:56:45.588Z,4.60
2018-04-29T20:59:15.057Z,5.20
2018-04-29T21:01:44.328Z,5.47
2018-04-29T21:04:13.586Z,5.00
2018-04-29T21:06:43.091Z,5.23
2018-04-29T21:09:12.630Z,5.10
2018-04-29T21:11:42.117Z,4.90
2018-04-29T21:14:11.376Z,4.50
2018-04-29T21:16:40.857Z,5.07
2018-04-29T21:19:10.393Z,6.53
2018-04-29T21:21:39.881Z,7.10
2018-04-29T21:24:09.552Z,5.67
2018-04-29T21:26:39.085Z,5.60
2018-04-29T21:29:08.745Z,7.13
2018-04-29T21:31:38.236Z,5.77
2018-04-29T21:34:07.809Z,5.40
2018-04-29T21:36:37.336Z,6.10
2018-04-29T21:39:06.819Z,5.17
2018-04-29T21:41:36.415Z,5.70
2018-04-29T21:44:05.980Z,5.97
2018-04-29T21:46:35.685Z,6.00
2018-04-29T21:49:05.202Z,5.67
2018-04-29T21:51:34.880Z,5.30
2018-04-29T21:54:04.352Z,6.23
2018-04-29T21:56:33.850Z,6.93
2018-04-29T21:59:03.339Z,6.27
2018-04-29T22:01:32.831Z,7.17
2018-04-29T22:04:02.333Z,5.73
2018-04-29T22:06:31.823Z,6.40
2018-04-29T22:09:01.317Z,6.40
2018-04-29T22:11:30.794Z,6.30
2018-04-29T22:14:00.301Z,6.00
2018-04-29T22:16:29.788Z,7.30
2018-04-29T22:18:59.281Z,6.30
2018-04-29T22:21:28.825Z,6.60
2018-04-29T22:23:58.341Z,6.30
2018-04-29T22:26:27.940Z,7.63
2018-04-29T22:28:57.556Z,7.03
2018-04-29T22:31:27.043Z,7.17
2018-04-29T22:33:56.531Z,6.57
2018-04-29T22:36:26.028Z,7.03
2018-04-29T22:38:55.628Z,6.13
2018-04-29T22:41:25.124Z,6.30
2018-04-29T22:43:54.638Z,6.07
2018-04-29T22:46:24.161Z,6.30
2018-04-29T22:48:53.640Z,5.10
2018-04-29T22:51:23.244Z,5.10
2018-04-29T22:53:52.865Z,5.40
2018-04-29T22:56:22.357Z,5.47
2018-04-29T22:58:51.833Z,5.57
2018-04-29T23:01:21.316Z,5.43
2018-04-29T23:03:50.812Z,4.90
2018-04-29T23:06:20.520Z,5.50
2018-04-29T23:08:50.015Z,5.00
2018-04-29T23:11:19.532Z,5.37
2018-04-29T23:13:49.130Z,5.67
2018-04-29T23:16:18.629Z,5.93
2018-04-29T23:18:48.124Z,5.10
2018-04-29T23:21:17.777Z,5.30
2018-04-29T23:23:47.292Z,6.10
2018-04-29T23:26:16.761Z,5.43
2018-04-29T23:28:46.365Z,5.37
2018-04-29T23:31:15.931Z,5.20
2018-04-29T23:33:45.408Z,5.43
2018-04-29T23:36:14.877Z,5.83
2018-04-29T23:38:44.368Z,7.87
2018-04-29T23:41:13.846Z,5.67
2018-04-29T23:43:43.341Z,5.20
2018-04-29T23:46:12.857Z,5.70
2018-04-29T23:48:42.332Z,5.63
2018-04-29T23:51:12.014Z,5.67
2018-04-29T23:53:41.700Z,6.03
2018-04-29T23:56:11.176Z,6.07
2018-04-29T23:58:40.756Z,5.77
